Time;durP1;ratioP1;P1;durP2;ratioP2;P2;SDS_P1;SDS_P2;PMS_P1;PMS_P2;Temp;Humidity;BMP_temperature;BMP_pressure;BME280_temperature;BME280_humidity;BME280_pressure;Samples;Min_cycle;Max_cycle;Signal;HPM_P1;HPM_P2
2022/04/07 00:02:05;;;;;;;;;1.00;1.00;;;;;;;;5054804;28;9728;-75
2022/04/07 00:04:32;;;;;;;;;0.00;0.00;;;;;;;;5056719;28;9656;-74
2022/04/07 00:07:00;;;;;;;;;1.00;1.00;;;;;;;;5050947;28;9544;-74
2022/04/07 00:09:27;;;;;;;;;0.00;0.00;;;;;;;;5054400;28;10487;-74
2022/04/07 00:11:54;;;;;;;;;0.00;0.00;;;;;;;;5045129;28;9788;-74
2022/04/07 00:14:21;;;;;;;;;0.00;0.00;;;;;;;;5050520;28;9661;-74
2022/04/07 00:16:54;;;;;;;;;2.00;0.00;;;;;;;;5049457;28;9559;-75
2022/04/07 00:19:22;;;;;;;;;1.00;0.00;;;;;;;;5051064;28;9683;-75
2022/04/07 00:21:49;;;;;;;;;1.00;1.00;;;;;;;;5056148;28;9542;-74
2022/04/07 00:24:17;;;;;;;;;2.00;0.00;;;;;;;;5048380;28;9478;-75
2022/04/07 00:26:44;;;;;;;;;1.00;1.00;;;;;;;;5049379;28;9695;-74
2022/04/07 00:29:11;;;;;;;;;0.00;0.00;;;;;;;;5047457;28;9654;-74
2022/04/07 00:31:42;;;;;;;;;1.75;1.00;;;;;;;;5051660;28;9595;-74
2022/04/07 00:34:11;;;;;;;;;1.00;1.00;;;;;;;;5049087;28;9762;-75
2022/04/07 00:36:39;;;;;;;;;0.00;0.00;;;;;;;;5061738;28;9780;-75
2022/04/07 00:39:06;;;;;;;;;0.00;0.00;;;;;;;;5051747;28;9707;-75
2022/04/07 00:41:37;;;;;;;;;0.00;0.00;;;;;;;;5044932;28;9772;-74
2022/04/07 00:44:08;;;;;;;;;2.00;0.50;;;;;;;;5049202;28;9683;-75
2022/04/07 00:46:35;;;;;;;;;0.50;0.50;;;;;;;;5056867;28;9701;-76
2022/04/07 00:49:02;;;;;;;;;1.00;1.00;;;;;;;;5049906;28;9666;-75
2022/04/07 00:51:31;;;;;;;;;0.00;0.00;;;;;;;;5043015;28;9703;-75
2022/04/07 00:53:59;;;;;;;;;0.75;0.00;;;;;;;;5052507;28;9540;-75
2022/04/07 00:56:27;;;;;;;;;2.00;0.25;;;;;;;;5051772;28;9685;-75
2022/04/07 00:58:55;;;;;;;;;1.50;0.00;;;;;;;;5045804;28;9554;-75
2022/04/07 01:01:24;;;;;;;;;0.00;0.00;;;;;;;;5056947;28;9527;-76
2022/04/07 01:03:52;;;;;;;;;0.00;0.00;;;;;;;;5052364;28;9662;-76
2022/04/07 01:06:20;;;;;;;;;0.25;0.25;;;;;;;;5055339;28;9701;-76
2022/04/07 01:08:48;;;;;;;;;0.00;0.00;;;;;;;;5049451;28;10520;-75
2022/04/07 01:11:16;;;;;;;;;0.00;0.00;;;;;;;;5054308;28;9626;-75
2022/04/07 01:13:45;;;;;;;;;2.00;0.75;;;;;;;;5052781;28;9726;-75
2022/04/07 01:16:13;;;;;;;;;0.50;0.00;;;;;;;;5057380;28;9726;-75
2022/04/07 01:18:40;;;;;;;;;0.00;0.00;;;;;;;;5046315;28;9729;-75
2022/04/07 01:21:10;;;;;;;;;0.00;0.00;;;;;;;;5046011;28;9730;-75
2022/04/07 01:23:40;;;;;;;;;0.00;0.00;;;;;;;;5046066;28;9735;-75
2022/04/07 01:26:10;;;;;;;;;0.00;0.00;;;;;;;;5053054;28;9731;-75
2022/04/07 01:28:38;;;;;;;;;0.00;0.00;;;;;;;;5050605;28;9773;-74
2022/04/07 01:31:05;;;;;;;;;1.50;0.00;;;;;;;;5042056;28;9577;-74
2022/04/07 01:33:32;;;;;;;;;0.00;0.00;;;;;;;;5025194;28;9668;-75
2022/04/07 01:36:00;;;;;;;;;1.00;1.00;;;;;;;;5031535;28;9472;-75
2022/04/07 01:38:28;;;;;;;;;1.00;1.00;;;;;;;;5036293;28;9646;-75
2022/04/07 01:40:55;;;;;;;;;1.00;1.00;;;;;;;;5028980;28;9677;-75
2022/04/07 01:43:24;;;;;;;;;1.00;1.00;;;;;;;;5026514;28;9632;-75
2022/04/07 01:45:52;;;;;;;;;6.00;1.00;;;;;;;;5041835;28;9661;-75
2022/04/07 01:48:21;;;;;;;;;0.50;0.50;;;;;;;;5031197;28;10749;-75
2022/04/07 01:50:49;;;;;;;;;3.25;0.75;;;;;;;;5042135;28;9703;-75
2022/04/07 01:53:16;;;;;;;;;1.25;0.00;;;;;;;;5045073;28;9703;-75
2022/04/07 01:55:45;;;;;;;;;0.00;0.00;;;;;;;;5040720;28;9741;-75
2022/04/07 01:58:12;;;;;;;;;1.75;1.00;;;;;;;;5044122;28;9559;-75
2022/04/07 02:00:42;;;;;;;;;0.50;0.00;;;;;;;;5042758;28;9586;-75
2022/04/07 02:03:10;;;;;;;;;2.25;0.00;;;;;;;;5059283;28;9624;-76
2022/04/07 02:05:38;;;;;;;;;0.25;0.00;;;;;;;;5049920;28;9743;-75
2022/04/07 02:08:06;;;;;;;;;3.00;0.50;;;;;;;;5046397;28;9579;-76
2022/04/07 02:10:33;;;;;;;;;1.75;1.75;;;;;;;;5057353;28;9665;-75
2022/04/07 02:13:00;;;;;;;;;0.00;0.00;;;;;;;;5062609;28;9851;-74
2022/04/07 02:15:28;;;;;;;;;1.00;1.00;;;;;;;;5055625;28;9684;-75
2022/04/07 02:17:57;;;;;;;;;0.00;0.00;;;;;;;;5058617;28;9703;-76
2022/04/07 02:20:24;;;;;;;;;0.50;0.50;;;;;;;;5058498;28;9593;-76
2022/04/07 02:22:52;;;;;;;;;0.00;0.00;;;;;;;;5051681;28;9590;-74
2022/04/07 02:25:23;;;;;;;;;0.00;0.00;;;;;;;;5053139;28;9653;-76
2022/04/07 02:27:51;;;;;;;;;1.50;0.50;;;;;;;;5054490;28;9505;-75
2022/04/07 02:30:18;;;;;;;;;0.00;0.00;;;;;;;;5049632;28;9497;-75
2022/04/07 02:32:48;;;;;;;;;1.00;1.00;;;;;;;;5057257;28;9792;-74
2022/04/07 02:35:17;;;;;;;;;2.00;0.00;;;;;;;;5054568;28;9642;-75
2022/04/07 02:37:44;;;;;;;;;1.00;1.00;;;;;;;;5047606;28;10686;-75
2022/04/07 02:40:13;;;;;;;;;0.00;0.00;;;;;;;;5048597;28;9646;-75
2022/04/07 02:42:41;;;;;;;;;1.00;1.00;;;;;;;;5056062;28;9537;-76
2022/04/07 02:45:09;;;;;;;;;2.00;0.50;;;;;;;;5070566;28;10527;-75
2022/04/07 02:47:38;;;;;;;;;2.00;0.75;;;;;;;;5054021;28;9658;-75
2022/04/07 02:50:07;;;;;;;;;0.50;0.00;;;;;;;;5050189;28;9716;-77
2022/04/07 02:52:36;;;;;;;;;2.00;1.00;;;;;;;;5059638;28;9637;-74
2022/04/07 02:55:04;;;;;;;;;1.00;1.00;;;;;;;;5057804;28;9727;-74
2022/04/07 02:57:31;;;;;;;;;1.25;0.75;;;;;;;;5047306;28;9721;-74
2022/04/07 02:59:59;;;;;;;;;3.25;1.00;;;;;;;;5046239;28;9776;-74
2022/04/07 03:02:26;;;;;;;;;1.00;0.00;;;;;;;;5054850;28;9795;-73
2022/04/07 03:04:54;;;;;;;;;0.75;0.75;;;;;;;;5055345;28;9735;-74
2022/04/07 03:07:22;;;;;;;;;2.00;0.25;;;;;;;;5057888;28;9889;-74
2022/04/07 03:09:50;;;;;;;;;0.75;0.75;;;;;;;;5047906;28;9895;-74
2022/04/07 03:12:18;;;;;;;;;1.25;1.00;;;;;;;;5057997;28;9863;-75
2022/04/07 03:14:45;;;;;;;;;0.00;0.00;;;;;;;;5048768;28;10060;-73
2022/04/07 03:17:13;;;;;;;;;0.00;0.00;;;;;;;;5045360;28;9892;-74
2022/04/07 03:19:40;;;;;;;;;0.50;0.50;;;;;;;;5051290;28;10015;-74
2022/04/07 03:22:07;;;;;;;;;0.00;0.00;;;;;;;;5058453;28;10126;-74
2022/04/07 03:24:34;;;;;;;;;0.25;0.25;;;;;;;;5058700;28;11197;-75
2022/04/07 03:27:04;;;;;;;;;0.00;0.00;;;;;;;;5052580;28;10397;-74
2022/04/07 03:29:32;;;;;;;;;0.00;0.00;;;;;;;;5059462;28;10506;-74
2022/04/07 03:31:59;;;;;;;;;0.00;0.00;;;;;;;;5053958;28;11745;-75
2022/04/07 03:34:27;;;;;;;;;2.00;0.00;;;;;;;;5058677;28;10483;-75
2022/04/07 03:36:54;;;;;;;;;1.00;0.00;;;;;;;;5058873;28;10456;-75
2022/04/07 03:39:21;;;;;;;;;1.00;1.00;;;;;;;;5043738;28;10463;-74
2022/04/07 03:41:48;;;;;;;;;0.00;0.00;;;;;;;;5056929;28;11135;-74
2022/04/07 03:44:18;;;;;;;;;0.00;0.00;;;;;;;;5059063;28;10481;-74
2022/04/07 03:46:45;;;;;;;;;0.00;0.00;;;;;;;;5059090;28;10426;-74
2022/04/07 03:49:13;;;;;;;;;1.00;0.75;;;;;;;;5054849;28;10249;-75
2022/04/07 03:51:40;;;;;;;;;2.00;0.25;;;;;;;;5050262;28;10185;-74
2022/04/07 03:54:08;;;;;;;;;2.00;1.00;;;;;;;;5050951;28;10246;-75
2022/04/07 03:56:35;;;;;;;;;1.00;1.00;;;;;;;;5060494;28;10298;-74
2022/04/07 03:59:02;;;;;;;;;1.00;1.00;;;;;;;;5053516;28;10249;-74
2022/04/07 04:01:32;;;;;;;;;1.00;1.00;;;;;;;;5050388;28;10271;-76
2022/04/07 04:04:01;;;;;;;;;1.00;1.00;;;;;;;;5046260;28;10250;-74
2022/04/07 04:06:29;;;;;;;;;1.00;1.00;;;;;;;;5052508;28;10202;-74
2022/04/07 04:08:56;;;;;;;;;0.75;0.50;;;;;;;;5044906;28;10127;-74
2022/04/07 04:11:23;;;;;;;;;1.00;1.00;;;;;;;;5059145;28;10044;-77
2022/04/07 04:13:50;;;;;;;;;4.00;2.00;;;;;;;;5052188;28;10362;-77
2022/04/07 04:16:18;;;;;;;;;0.75;0.75;;;;;;;;5061963;28;10246;-76
2022/04/07 04:18:47;;;;;;;;;2.00;1.00;;;;;;;;5057280;28;10175;-76
2022/04/07 04:21:14;;;;;;;;;1.50;1.50;;;;;;;;5052359;28;10307;-75
2022/04/07 04:23:41;;;;;;;;;1.25;1.25;;;;;;;;5050032;28;10138;-76
2022/04/07 04:26:08;;;;;;;;;1.00;1.00;;;;;;;;5053383;28;11055;-75
2022/04/07 04:28:36;;;;;;;;;2.00;2.00;;;;;;;;5051556;28;10228;-75
2022/04/07 04:31:03;;;;;;;;;2.00;2.00;;;;;;;;5052045;28;10227;-73
2022/04/07 04:33:30;;;;;;;;;3.00;1.75;;;;;;;;5054853;28;10120;-74
2022/04/07 04:36:00;;;;;;;;;1.00;1.00;;;;;;;;5053424;28;10224;-73
2022/04/07 04:38:27;;;;;;;;;2.75;1.00;;;;;;;;5058616;28;10067;-74
2022/04/07 04:40:55;;;;;;;;;6.50;5.00;;;;;;;;5049256;28;10904;-79
2022/04/07 04:43:22;;;;;;;;;3.00;3.00;;;;;;;;5055633;28;11170;-75
2022/04/07 04:45:49;;;;;;;;;3.75;2.00;;;;;;;;5058367;28;10188;-74
2022/04/07 04:48:17;;;;;;;;;2.75;2.75;;;;;;;;5060634;28;10249;-75
2022/04/07 04:50:44;;;;;;;;;1.75;1.75;;;;;;;;5059515;28;10089;-76
2022/04/07 04:53:13;;;;;;;;;2.00;2.00;;;;;;;;5060072;28;9985;-74
2022/04/07 04:55:40;;;;;;;;;1.00;1.00;;;;;;;;5062028;28;10021;-75
2022/04/07 04:58:08;;;;;;;;;7.25;1.50;;;;;;;;5060070;28;9865;-74
2022/04/07 05:00:35;;;;;;;;;4.75;2.00;;;;;;;;5062746;28;9980;-75
2022/04/07 05:03:02;;;;;;;;;1.00;1.00;;;;;;;;5058472;28;9976;-76
2022/04/07 05:05:30;;;;;;;;;1.00;1.00;;;;;;;;5063351;28;10721;-76
2022/04/07 05:07:57;;;;;;;;;1.00;1.00;;;;;;;;5059978;28;9859;-75
2022/04/07 05:10:26;;;;;;;;;2.00;2.00;;;;;;;;5060027;28;9851;-75
2022/04/07 05:12:54;;;;;;;;;2.00;1.75;;;;;;;;5055083;28;10058;-75
2022/04/07 05:15:21;;;;;;;;;2.50;2.25;;;;;;;;5057323;28;11177;-77
2022/04/07 05:17:50;;;;;;;;;3.00;3.00;;;;;;;;5057574;28;9956;-76
2022/04/07 05:20:17;;;;;;;;;3.50;1.00;;;;;;;;5055880;28;9981;-76
2022/04/07 05:22:45;;;;;;;;;3.50;2.00;;;;;;;;5048590;28;9932;-78
2022/04/07 05:25:12;;;;;;;;;2.00;2.00;;;;;;;;5050013;28;9950;-80
2022/04/07 05:27:45;;;;;;;;;1.25;1.25;;;;;;;;5048807;28;9783;-77
2022/04/07 05:30:15;;;;;;;;;1.00;1.00;;;;;;;;5055550;28;9757;-80
2022/04/07 05:32:43;;;;;;;;;2.00;2.00;;;;;;;;5056608;28;9849;-85
2022/04/07 05:35:12;;;;;;;;;1.00;1.00;;;;;;;;5052209;28;9796;-82
2022/04/07 05:37:40;;;;;;;;;1.00;1.00;;;;;;;;5058600;28;9821;-82
2022/04/07 05:40:11;;;;;;;;;3.00;2.00;;;;;;;;5057066;28;10552;-79
2022/04/07 05:42:40;;;;;;;;;1.00;1.00;;;;;;;;5060956;28;9953;-85
2022/04/07 05:45:08;;;;;;;;;0.75;0.75;;;;;;;;5069984;28;10377;-85
2022/04/07 05:47:40;;;;;;;;;1.00;1.00;;;;;;;;5059157;28;9789;-84
2022/04/07 05:50:08;;;;;;;;;0.50;0.50;;;;;;;;5061045;28;9724;-81
2022/04/07 05:52:35;;;;;;;;;0.00;0.00;;;;;;;;5060055;28;9684;-81
2022/04/07 05:55:03;;;;;;;;;3.50;2.00;;;;;;;;5060813;28;9666;-79
2022/04/07 05:57:31;;;;;;;;;0.00;0.00;;;;;;;;5060588;28;9882;-80
2022/04/07 06:00:06;;;;;;;;;1.00;1.00;;;;;;;;5052472;28;9549;-80
2022/04/07 06:02:33;;;;;;;;;1.00;1.00;;;;;;;;5059337;28;9683;-79
2022/04/07 06:05:00;;;;;;;;;2.00;0.75;;;;;;;;5055002;28;9636;-81
2022/04/07 06:07:27;;;;;;;;;1.00;1.00;;;;;;;;5059688;28;9660;-80
2022/04/07 06:09:55;;;;;;;;;1.50;1.50;;;;;;;;5063635;28;9694;-81
2022/04/07 06:12:22;;;;;;;;;2.00;0.00;;;;;;;;5056491;28;9726;-79
2022/04/07 06:14:49;;;;;;;;;0.75;0.00;;;;;;;;5059177;28;9743;-79
2022/04/07 06:17:18;;;;;;;;;1.50;1.50;;;;;;;;5057815;28;9852;-78
2022/04/07 06:19:46;;;;;;;;;1.00;1.00;;;;;;;;5058564;28;9732;-78
2022/04/07 06:22:13;;;;;;;;;1.00;1.00;;;;;;;;5061745;28;9603;-79
2022/04/07 06:24:40;;;;;;;;;5.00;1.00;;;;;;;;5061718;28;9806;-80
2022/04/07 06:27:07;;;;;;;;;0.00;0.00;;;;;;;;5060960;28;10566;-80
2022/04/07 06:29:35;;;;;;;;;0.00;0.00;;;;;;;;5060511;28;9617;-80
2022/04/07 06:32:02;;;;;;;;;0.00;0.00;;;;;;;;5059399;28;9568;-80
2022/04/07 06:34:31;;;;;;;;;2.00;1.00;;;;;;;;5057987;28;9624;-79
2022/04/07 06:37:00;;;;;;;;;3.75;1.00;;;;;;;;5059664;28;9756;-80
2022/04/07 06:39:27;;;;;;;;;1.00;1.00;;;;;;;;5059055;28;10365;-80
2022/04/07 06:41:55;;;;;;;;;1.50;1.50;;;;;;;;5061630;28;9643;-80
2022/04/07 06:44:22;;;;;;;;;1.00;1.00;;;;;;;;5062553;28;9644;-80
2022/04/07 06:46:50;;;;;;;;;1.00;1.00;;;;;;;;5085061;28;9648;-80
2022/04/07 06:49:17;;;;;;;;;0.25;0.00;;;;;;;;5059866;28;9571;-80
2022/04/07 06:51:46;;;;;;;;;0.00;0.00;;;;;;;;5057331;28;9590;-81
2022/04/07 06:54:14;;;;;;;;;2.00;0.50;;;;;;;;5056924;28;9651;-81
2022/04/07 06:56:41;;;;;;;;;1.00;1.00;;;;;;;;5064034;28;9486;-80
2022/04/07 06:59:08;;;;;;;;;0.75;0.00;;;;;;;;5060694;28;9421;-80
2022/04/07 07:01:36;;;;;;;;;0.50;0.50;;;;;;;;5063349;28;9453;-80
2022/04/07 07:04:03;;;;;;;;;1.00;0.00;;;;;;;;5064776;28;9502;-79
2022/04/07 07:06:30;;;;;;;;;0.00;0.00;;;;;;;;5051866;28;9440;-80
2022/04/07 07:08:59;;;;;;;;;0.00;0.00;;;;;;;;5063177;28;9513;-80
2022/04/07 07:11:27;;;;;;;;;0.00;0.00;;;;;;;;5063952;28;9408;-79
2022/04/07 07:13:54;;;;;;;;;2.75;1.25;;;;;;;;5061759;28;10281;-80
2022/04/07 07:16:22;;;;;;;;;1.00;1.00;;;;;;;;5054365;28;9424;-80
2022/04/07 07:18:51;;;;;;;;;0.00;0.00;;;;;;;;5062040;28;9563;-81
2022/04/07 07:21:18;;;;;;;;;0.00;0.00;;;;;;;;5063023;28;9432;-81
2022/04/07 07:23:47;;;;;;;;;0.00;0.00;;;;;;;;5064027;28;9474;-81
2022/04/07 07:26:16;;;;;;;;;1.00;0.00;;;;;;;;5062444;28;9428;-81
2022/04/07 07:28:44;;;;;;;;;0.00;0.00;;;;;;;;5060972;28;9564;-80
2022/04/07 07:31:11;;;;;;;;;0.67;0.67;;;;;;;;5054125;28;9492;-80
2022/04/07 07:33:38;;;;;;;;;0.00;0.00;;;;;;;;5061418;28;9414;-80
2022/04/07 07:36:06;;;;;;;;;0.00;0.00;;;;;;;;5060793;28;9416;-81
2022/04/07 07:38:33;;;;;;;;;1.33;0.00;;;;;;;;5061181;28;9333;-81
2022/04/07 07:41:01;;;;;;;;;1.33;0.00;;;;;;;;5059730;28;9363;-80
2022/04/07 07:43:29;;;;;;;;;0.00;0.00;;;;;;;;5056630;28;10153;-82
2022/04/07 07:45:56;;;;;;;;;0.00;0.00;;;;;;;;5073203;28;9447;-81
2022/04/07 07:48:27;;;;;;;;;0.00;0.00;;;;;;;;5060855;28;9476;-82
2022/04/07 07:50:55;;;;;;;;;0.00;0.00;;;;;;;;5064319;28;9441;-81
2022/04/07 07:53:22;;;;;;;;;0.67;0.67;;;;;;;;5055778;28;9290;-80
2022/04/07 07:55:50;;;;;;;;;0.00;0.00;;;;;;;;5061018;28;9470;-80
2022/04/07 07:58:17;;;;;;;;;0.00;0.00;;;;;;;;5056747;28;9217;-80
2022/04/07 08:00:46;;;;;;;;;0.00;0.00;;;;;;;;5062917;28;9832;-82
2022/04/07 08:03:15;;;;;;;;;0.00;0.00;;;;;;;;5063744;28;9201;-81
2022/04/07 08:05:44;;;;;;;;;0.00;0.00;;;;;;;;5054431;28;9225;-80
2022/04/07 08:08:12;;;;;;;;;0.00;0.00;;;;;;;;5052122;28;9194;-82
2022/04/07 08:10:39;;;;;;;;;0.00;0.00;;;;;;;;5061647;28;9110;-80
2022/04/07 08:13:07;;;;;;;;;0.00;0.00;;;;;;;;5064108;28;9137;-82
2022/04/07 08:15:34;;;;;;;;;0.00;0.00;;;;;;;;5050782;28;9110;-81
2022/04/07 08:18:03;;;;;;;;;0.00;0.00;;;;;;;;5063472;28;8883;-82
2022/04/07 08:20:35;;;;;;;;;0.00;0.00;;;;;;;;5065592;28;8890;-81
2022/04/07 08:23:02;;;;;;;;;0.00;0.00;;;;;;;;5056136;28;8959;-80
2022/04/07 08:25:30;;;;;;;;;0.00;0.00;;;;;;;;5057640;28;8868;-81
2022/04/07 08:27:57;;;;;;;;;0.00;0.00;;;;;;;;5062302;28;9017;-83
2022/04/07 08:30:24;;;;;;;;;0.75;0.00;;;;;;;;5063403;28;8948;-83
2022/04/07 08:32:52;;;;;;;;;0.25;0.00;;;;;;;;5061919;28;8928;-82
2022/04/07 08:35:21;;;;;;;;;0.00;0.00;;;;;;;;5063114;28;8873;-81
2022/04/07 08:37:48;;;;;;;;;0.00;0.00;;;;;;;;5064364;28;8858;-85
2022/04/07 08:40:16;;;;;;;;;0.00;0.00;;;;;;;;5063103;28;9029;-85
2022/04/07 08:42:44;;;;;;;;;1.50;0.00;;;;;;;;5063516;28;8905;-83
2022/04/07 08:45:11;;;;;;;;;1.00;0.00;;;;;;;;5072789;28;9643;-81
2022/04/07 08:47:39;;;;;;;;;0.00;0.00;;;;;;;;5063450;28;8975;-81
2022/04/07 08:50:08;;;;;;;;;0.00;0.00;;;;;;;;5063140;28;8867;-83
2022/04/07 08:52:37;;;;;;;;;0.00;0.00;;;;;;;;5062131;28;8867;-84
2022/04/07 08:55:05;;;;;;;;;0.00;0.00;;;;;;;;5062907;28;8883;-79
2022/04/07 08:57:34;;;;;;;;;0.00;0.00;;;;;;;;5063479;28;8886;-85
2022/04/07 09:00:01;;;;;;;;;0.00;0.00;;;;;;;;5064186;28;9686;-82
2022/04/07 09:02:29;;;;;;;;;0.00;0.00;;;;;;;;5062061;28;8835;-81
2022/04/07 09:04:59;;;;;;;;;0.00;0.00;;;;;;;;5064286;28;8912;-83
2022/04/07 09:07:32;;;;;;;;;0.00;0.00;;;;;;;;5063792;28;8892;-81
2022/04/07 09:10:01;;;;;;;;;0.00;0.00;;;;;;;;5095163;28;8951;-82
2022/04/07 09:12:29;;;;;;;;;1.00;0.00;;;;;;;;5049861;28;8929;-81
2022/04/07 09:14:58;;;;;;;;;0.00;0.00;;;;;;;;5056215;28;8879;-81
2022/04/07 09:17:26;;;;;;;;;0.50;0.00;;;;;;;;5063255;28;8948;-78
2022/04/07 09:19:54;;;;;;;;;0.75;0.00;;;;;;;;5061963;28;8878;-79
2022/04/07 09:22:30;;;;;;;;;0.50;0.00;;;;;;;;5063034;28;8908;-79
2022/04/07 09:24:57;;;;;;;;;0.00;0.00;;;;;;;;5061411;28;8824;-79
2022/04/07 09:27:26;;;;;;;;;0.00;0.00;;;;;;;;5062638;28;8901;-80
2022/04/07 09:29:56;;;;;;;;;0.00;0.00;;;;;;;;5054491;28;8883;-80
2022/04/07 09:32:25;;;;;;;;;0.00;0.00;;;;;;;;5048309;28;8814;-82
2022/04/07 09:34:56;;;;;;;;;0.00;0.00;;;;;;;;5063317;28;8881;-82
2022/04/07 09:37:25;;;;;;;;;0.00;0.00;;;;;;;;5048746;28;8885;-82
2022/04/07 09:40:04;;;;;;;;;0.00;0.00;;;;;;;;5060845;28;8917;-83
2022/04/07 09:42:34;;;;;;;;;0.25;0.25;;;;;;;;5062236;28;9000;-82
2022/04/07 09:45:02;;;;;;;;;0.00;0.00;;;;;;;;5071631;28;8859;-83
2022/04/07 09:47:37;;;;;;;;;0.00;0.00;;;;;;;;5063342;28;8971;-81
2022/04/07 09:50:05;;;;;;;;;0.00;0.00;;;;;;;;5061469;28;8968;-84
2022/04/07 09:52:32;;;;;;;;;0.00;0.00;;;;;;;;5063048;28;8885;-84
2022/04/07 09:55:06;;;;;;;;;0.00;0.00;;;;;;;;5061964;28;8870;-82
2022/04/07 09:57:36;;;;;;;;;0.00;0.00;;;;;;;;5063155;28;8896;-81
2022/04/07 10:00:05;;;;;;;;;0.00;0.00;;;;;;;;5062856;28;8871;-84
2022/04/07 10:02:34;;;;;;;;;0.00;0.00;;;;;;;;5074726;28;8829;-84
2022/04/07 10:05:03;;;;;;;;;0.25;0.00;;;;;;;;5036487;28;8898;-86
2022/04/07 10:07:30;;;;;;;;;0.00;0.00;;;;;;;;5072071;28;8872;-83
2022/04/07 10:09:58;;;;;;;;;0.00;0.00;;;;;;;;5048308;28;9715;-81
2022/04/07 10:12:26;;;;;;;;;0.00;0.00;;;;;;;;5045812;28;8948;-86
2022/04/07 10:14:56;;;;;;;;;0.00;0.00;;;;;;;;5046134;28;8881;-84
2022/04/07 10:17:24;;;;;;;;;0.00;0.00;;;;;;;;5045977;28;8971;-79
2022/04/07 10:19:55;;;;;;;;;0.00;0.00;;;;;;;;5047061;28;9111;-83
2022/04/07 10:22:53;;;;;;;;;0.00;0.00;;;;;;;;5045848;28;9134;-85
2022/04/07 10:25:22;;;;;;;;;0.00;0.00;;;;;;;;5010616;28;9091;-85
2022/04/07 10:27:53;;;;;;;;;0.00;0.00;;;;;;;;5045308;28;9130;-79
2022/04/07 10:30:21;;;;;;;;;0.00;0.00;;;;;;;;5046038;28;9071;-80
2022/04/07 10:32:50;;;;;;;;;0.00;0.00;;;;;;;;5063933;28;8980;-82
2022/04/07 10:35:36;;;;;;;;;1.00;0.00;;;;;;;;5067585;28;9067;-79
2022/04/07 10:38:04;;;;;;;;;0.00;0.00;;;;;;;;5063002;28;10185;-81
2022/04/07 10:40:54;;;;;;;;;0.00;0.00;;;;;;;;5066644;28;8894;-85
2022/04/07 10:43:25;;;;;;;;;0.00;0.00;;;;;;;;5064274;28;8961;-80
2022/04/07 10:46:06;;;;;;;;;0.00;0.00;;;;;;;;5056135;28;9107;-84
2022/04/07 10:48:34;;;;;;;;;1.00;1.00;;;;;;;;5054841;28;9126;-85
2022/04/07 10:51:03;;;;;;;;;2.33;1.00;;;;;;;;5059118;28;9119;-84
2022/04/07 10:53:34;;;;;;;;;1.00;1.00;;;;;;;;5068264;28;9003;-84
2022/04/07 10:56:06;;;;;;;;;2.00;2.00;;;;;;;;5065907;28;9208;-81
2022/04/07 10:58:55;;;;;;;;;2.00;2.00;;;;;;;;5066783;28;9125;-81
2022/04/07 11:02:00;;;;;;;;;2.00;2.00;;;;;;;;5061885;28;9080;-84
2022/04/07 11:05:10;;;;;;;;;2.67;1.00;;;;;;;;5028008;28;9120;-82
2022/04/07 11:07:51;;;;;;;;;1.00;1.00;;;;;;;;5058499;28;9214;-82
2022/04/07 11:10:21;;;;;;;;;2.00;2.00;;;;;;;;5062657;28;9107;-85
2022/04/07 11:13:02;;;;;;;;;2.00;2.00;;;;;;;;5063544;28;9115;-85
2022/04/07 11:15:34;;;;;;;;;2.00;2.00;;;;;;;;5051361;28;9113;-81
2022/04/07 11:18:34;;;;;;;;;4.00;2.00;;;;;;;;5061762;28;8941;-82
2022/04/07 11:21:03;;;;;;;;;4.33;1.00;;;;;;;;5092320;28;9074;-83
2022/04/07 11:23:45;;;;;;;;;4.00;3.33;;;;;;;;5059910;28;9012;-81
2022/04/07 11:26:21;;;;;;;;;3.00;3.00;;;;;;;;5048691;28;9135;-81
2022/04/07 11:29:00;;;;;;;;;3.67;3.67;;;;;;;;5045147;28;9039;-79
2022/04/07 11:32:06;;;;;;;;;2.00;2.00;;;;;;;;5044608;28;9047;-82
2022/04/07 11:34:51;;;;;;;;;1.67;1.67;;;;;;;;4998571;28;9089;-80
2022/04/07 11:37:20;;;;;;;;;1.00;1.00;;;;;;;;5057592;28;8981;-86
2022/04/07 11:39:50;;;;;;;;;2.00;2.00;;;;;;;;5061446;28;9030;-80
2022/04/07 11:42:19;;;;;;;;;2.00;2.00;;;;;;;;5062672;28;8986;-82
2022/04/07 11:44:47;;;;;;;;;0.75;0.75;;;;;;;;5069619;28;8904;-86
2022/04/07 11:47:26;;;;;;;;;3.00;1.00;;;;;;;;5054490;28;8865;-79
2022/04/07 11:49:54;;;;;;;;;1.00;1.00;;;;;;;;5065418;28;8867;-78
2022/04/07 11:52:27;;;;;;;;;2.25;1.50;;;;;;;;5064212;28;8886;-80
2022/04/07 11:54:55;;;;;;;;;3.00;3.00;;;;;;;;5066146;28;8889;-79
2022/04/07 11:57:24;;;;;;;;;2.25;1.75;;;;;;;;5065740;28;8882;-79
2022/04/07 11:59:54;;;;;;;;;2.50;2.00;;;;;;;;5061094;28;8885;-81
2022/04/07 12:02:23;;;;;;;;;3.00;2.00;;;;;;;;5064273;28;8873;-78
2022/04/07 12:04:59;;;;;;;;;2.00;1.50;;;;;;;;5057760;28;8952;-84
2022/04/07 12:07:27;;;;;;;;;3.00;1.00;;;;;;;;5065446;28;8878;-80
2022/04/07 12:09:57;;;;;;;;;1.00;0.00;;;;;;;;5066909;28;8867;-85
2022/04/07 12:12:25;;;;;;;;;4.50;1.25;;;;;;;;5067596;28;8896;-81
2022/04/07 12:14:53;;;;;;;;;0.50;0.50;;;;;;;;5063544;28;8858;-87
2022/04/07 12:17:22;;;;;;;;;1.75;0.50;;;;;;;;5063258;28;8996;-80
2022/04/07 12:19:51;;;;;;;;;1.25;1.25;;;;;;;;5063442;28;8861;-82
2022/04/07 12:22:30;;;;;;;;;1.00;0.00;;;;;;;;5059653;28;8911;-84
2022/04/07 12:25:03;;;;;;;;;0.50;0.00;;;;;;;;5062184;28;8903;-84
2022/04/07 12:27:33;;;;;;;;;0.00;0.00;;;;;;;;5064813;28;8981;-84
2022/04/07 12:30:01;;;;;;;;;0.25;0.00;;;;;;;;5062373;28;8871;-85
2022/04/07 12:32:42;;;;;;;;;1.50;0.50;;;;;;;;5076455;28;8808;-84
2022/04/07 12:35:09;;;;;;;;;0.00;0.00;;;;;;;;5070370;28;8891;-80
2022/04/07 12:37:40;;;;;;;;;0.00;0.00;;;;;;;;5075207;28;8924;-79
2022/04/07 12:40:28;;;;;;;;;0.00;0.00;;;;;;;;5075444;28;8900;-85
2022/04/07 12:42:56;;;;;;;;;1.50;0.00;;;;;;;;5069034;28;8943;-77
2022/04/07 12:45:24;;;;;;;;;0.50;0.00;;;;;;;;5062893;28;8879;-79
2022/04/07 12:48:02;;;;;;;;;0.00;0.00;;;;;;;;5063130;28;9407;-79
2022/04/07 12:50:30;;;;;;;;;1.50;0.00;;;;;;;;5081307;28;8892;-81
2022/04/07 12:52:58;;;;;;;;;0.00;0.00;;;;;;;;5073880;28;8902;-82
2022/04/07 12:55:35;;;;;;;;;0.00;0.00;;;;;;;;5069521;28;9004;-81
2022/04/07 12:58:03;;;;;;;;;1.00;1.00;;;;;;;;5075650;28;8860;-82
2022/04/07 13:00:32;;;;;;;;;0.00;0.00;;;;;;;;5063586;28;8826;-81
2022/04/07 13:03:01;;;;;;;;;0.00;0.00;;;;;;;;5062944;28;8876;-83
2022/04/07 13:05:30;;;;;;;;;0.75;0.00;;;;;;;;5058684;28;8975;-83
2022/04/07 13:08:00;;;;;;;;;0.00;0.00;;;;;;;;5061954;28;8862;-80
2022/04/07 13:10:29;;;;;;;;;1.50;0.50;;;;;;;;5063064;28;8890;-79
2022/04/07 13:12:56;;;;;;;;;0.00;0.00;;;;;;;;5062978;28;8870;-80
2022/04/07 13:15:24;;;;;;;;;1.00;1.00;;;;;;;;5057731;28;8891;-84
2022/04/07 13:17:51;;;;;;;;;2.33;1.00;;;;;;;;5056581;28;8887;-82
2022/04/07 13:20:19;;;;;;;;;3.00;1.67;;;;;;;;5059268;28;8944;-82
2022/04/07 13:22:48;;;;;;;;;3.67;0.00;;;;;;;;5061647;28;9120;-83
2022/04/07 13:25:17;;;;;;;;;1.67;1.67;;;;;;;;5062733;28;9842;-81
2022/04/07 13:27:45;;;;;;;;;3.75;1.00;;;;;;;;5054783;28;9035;-85
2022/04/07 13:30:13;;;;;;;;;1.00;1.00;;;;;;;;5054727;28;8984;-80
2022/04/07 13:32:41;;;;;;;;;1.00;1.00;;;;;;;;5054038;28;8947;-79
2022/04/07 13:35:09;;;;;;;;;2.25;0.00;;;;;;;;5057804;28;8887;-76
2022/04/07 13:37:36;;;;;;;;;1.00;1.00;;;;;;;;5054826;28;8858;-78
2022/04/07 13:40:04;;;;;;;;;1.00;0.00;;;;;;;;5058681;28;9666;-78
2022/04/07 13:42:35;;;;;;;;;1.25;1.00;;;;;;;;5056639;28;9682;-78
2022/04/07 13:45:02;;;;;;;;;0.75;0.75;;;;;;;;5068999;28;8871;-81
2022/04/07 13:47:29;;;;;;;;;1.00;1.00;;;;;;;;5057233;28;8942;-80
2022/04/07 13:49:57;;;;;;;;;1.00;1.00;;;;;;;;5058887;28;8870;-80
2022/04/07 13:52:24;;;;;;;;;0.00;0.00;;;;;;;;5058254;28;9008;-81
2022/04/07 13:54:52;;;;;;;;;1.00;0.00;;;;;;;;5063319;28;8877;-80
2022/04/07 13:57:19;;;;;;;;;0.00;0.00;;;;;;;;5054373;28;8886;-80
2022/04/07 13:59:48;;;;;;;;;1.00;0.00;;;;;;;;5066163;28;8891;-81
2022/04/07 14:02:17;;;;;;;;;0.00;0.00;;;;;;;;5061894;28;8846;-80
2022/04/07 14:04:45;;;;;;;;;0.00;0.00;;;;;;;;5059597;28;9023;-77
2022/04/07 14:07:12;;;;;;;;;0.00;0.00;;;;;;;;5055641;28;8969;-77
2022/04/07 14:09:39;;;;;;;;;0.00;0.00;;;;;;;;5057123;28;8875;-78
2022/04/07 14:12:07;;;;;;;;;0.00;0.00;;;;;;;;5054583;28;8892;-77
2022/04/07 14:14:35;;;;;;;;;0.00;0.00;;;;;;;;5059867;28;8887;-76
2022/04/07 14:17:04;;;;;;;;;0.00;0.00;;;;;;;;5060189;28;8913;-76
2022/04/07 14:19:31;;;;;;;;;1.00;0.00;;;;;;;;5047543;28;8902;-76
2022/04/07 14:21:59;;;;;;;;;0.00;0.00;;;;;;;;5053900;28;8855;-76
2022/04/07 14:24:26;;;;;;;;;0.00;0.00;;;;;;;;5060323;28;8887;-75
2022/04/07 14:26:54;;;;;;;;;0.00;0.00;;;;;;;;5060283;28;9619;-75
2022/04/07 14:29:21;;;;;;;;;0.00;0.00;;;;;;;;5061139;28;9635;-76
2022/04/07 14:31:48;;;;;;;;;3.00;0.00;;;;;;;;5059751;28;8811;-76
2022/04/07 14:34:17;;;;;;;;;0.00;0.00;;;;;;;;5063464;28;8858;-76
2022/04/07 14:36:45;;;;;;;;;0.00;0.00;;;;;;;;5060388;28;9753;-77
2022/04/07 14:39:12;;;;;;;;;0.00;0.00;;;;;;;;5061815;28;8994;-77
2022/04/07 14:41:40;;;;;;;;;0.00;0.00;;;;;;;;5059866;28;8908;-79
2022/04/07 14:44:07;;;;;;;;;0.00;0.00;;;;;;;;5054049;28;8861;-81
2022/04/07 14:46:35;;;;;;;;;1.00;0.00;;;;;;;;5057354;28;8877;-79
2022/04/07 14:49:02;;;;;;;;;0.00;0.00;;;;;;;;5054893;28;8936;-78
2022/04/07 14:51:32;;;;;;;;;1.00;0.00;;;;;;;;5060700;28;8859;-77
2022/04/07 14:54:00;;;;;;;;;0.00;0.00;;;;;;;;5050218;28;8890;-77
2022/04/07 14:56:27;;;;;;;;;0.00;0.00;;;;;;;;5057594;28;8901;-77
2022/04/07 14:58:55;;;;;;;;;0.00;0.00;;;;;;;;5057488;28;8928;-80
2022/04/07 15:01:22;;;;;;;;;0.00;0.00;;;;;;;;5060152;28;8799;-79
2022/04/07 15:03:49;;;;;;;;;0.00;0.00;;;;;;;;5058462;28;8879;-80
2022/04/07 15:06:17;;;;;;;;;0.00;0.00;;;;;;;;5060785;28;8867;-78
2022/04/07 15:08:45;;;;;;;;;0.00;0.00;;;;;;;;5051208;28;8867;-78